Time;durP1;ratioP1;P1;durP2;ratioP2;P2;SDS_P1;SDS_P2;PMS_P1;PMS_P2;Temp;Humidity;BMP_temperature;BMP_pressure;BME280_temperature;BME280_humidity;BME280_pressure;Samples;Min_cycle;Max_cycle;Signal;HPM_P1;HPM_P2
2023/07/12 00:01:13;;;;;;;2.00;1.80;;;23.70;99.90;;;;;;5033160;28;20813;-68
2023/07/12 00:03:39;;;;;;;2.73;2.10;;;23.60;99.90;;;;;;5033228;28;20411;-68
2023/07/12 00:06:15;;;;;;;3.90;1.70;;;23.60;99.90;;;;;;5033361;28;20406;-68
2023/07/12 00:08:41;;;;;;;1.60;1.50;;;23.60;99.90;;;;;;5033663;28;20257;-68
2023/07/12 00:11:16;;;;;;;3.53;1.67;;;23.50;99.90;;;;;;5033626;28;20394;-68
2023/07/12 00:13:42;;;;;;;1.97;1.80;;;23.50;99.90;;;;;;5033118;28;20394;-68
2023/07/12 00:16:35;;;;;;;3.30;2.10;;;23.40;99.90;;;;;;5032921;28;20449;-68
2023/07/12 00:19:00;;;;;;;4.20;2.90;;;23.30;99.90;;;;;;5033076;28;20619;-68
2023/07/12 00:21:28;;;;;;;2.17;1.83;;;23.30;99.90;;;;;;5033351;28;20402;-68
2023/07/12 00:23:59;;;;;;;9.57;2.30;;;23.20;99.90;;;;;;5033409;28;20159;-68
2023/07/12 00:26:34;;;;;;;2.17;1.63;;;23.10;99.90;;;;;;5032980;28;20440;-68
2023/07/12 00:29:02;;;;;;;1.77;1.60;;;23.10;99.90;;;;;;5033164;28;20784;-68
2023/07/12 00:31:27;;;;;;;3.63;1.10;;;23.10;99.90;;;;;;5033233;28;20402;-68
2023/07/12 00:33:53;;;;;;;1.93;1.30;;;23.10;99.90;;;;;;5033143;28;20921;-69
2023/07/12 00:36:25;;;;;;;3.20;1.33;;;23.10;99.90;;;;;;5032811;28;20195;-68
2023/07/12 00:38:51;;;;;;;2.07;1.50;;;23.00;99.90;;;;;;5033022;28;20192;-68
2023/07/12 00:41:32;;;;;;;1.70;1.37;;;23.00;99.90;;;;;;5032903;28;20452;-68
2023/07/12 00:44:29;;;;;;;1.80;1.40;;;23.10;99.90;;;;;;5032900;28;20398;-67
2023/07/12 00:46:57;;;;;;;1.73;1.37;;;23.00;99.90;;;;;;5032596;28;20403;-67
2023/07/12 00:49:23;;;;;;;2.37;1.47;;;23.00;99.90;;;;;;5032819;28;20418;-68
2023/07/12 00:52:16;;;;;;;2.03;1.40;;;23.00;99.90;;;;;;5032849;28;20418;-68
2023/07/12 00:55:01;;;;;;;1.50;1.40;;;22.90;99.90;;;;;;5033132;28;20758;-68
2023/07/12 00:57:29;;;;;;;1.77;1.50;;;22.70;99.90;;;;;;5032638;28;20461;-68
2023/07/12 00:59:59;;;;;;;1.60;1.50;;;22.60;99.90;;;;;;5032769;28;20398;-68
2023/07/12 01:02:25;;;;;;;2.93;1.77;;;22.60;99.90;;;;;;5032703;28;20402;-68
2023/07/12 01:04:55;;;;;;;1.60;1.40;;;22.50;99.90;;;;;;5032307;28;20406;-68
2023/07/12 01:07:23;;;;;;;1.60;1.27;;;22.60;99.90;;;;;;5032362;28;20442;-68
2023/07/12 01:09:48;;;;;;;3.70;1.53;;;22.60;99.90;;;;;;5032337;28;20398;-67
2023/07/12 01:12:14;;;;;;;1.70;1.37;;;22.60;99.90;;;;;;5032028;28;20409;-68
2023/07/12 01:14:41;;;;;;;1.60;1.30;;;22.50;99.90;;;;;;5031209;28;20168;-68
2023/07/12 01:17:08;;;;;;;1.60;1.20;;;22.50;99.90;;;;;;5031933;28;20278;-68
2023/07/12 01:19:37;;;;;;;3.10;1.47;;;22.50;99.90;;;;;;5032223;28;20433;-68
2023/07/12 01:22:04;;;;;;;2.73;1.80;;;22.40;99.90;;;;;;5032191;28;20399;-68
2023/07/12 01:24:33;;;;;;;1.73;1.30;;;22.20;99.90;;;;;;5032155;28;20477;-67
2023/07/12 01:27:05;;;;;;;2.30;1.50;;;22.20;99.90;;;;;;5031943;28;20464;-68
2023/07/12 01:29:31;;;;;;;3.47;1.80;;;22.20;99.90;;;;;;5032214;28;20823;-68
2023/07/12 01:31:57;;;;;;;1.70;1.60;;;22.10;99.90;;;;;;5032107;28;20442;-68
2023/07/12 01:34:24;;;;;;;2.57;2.00;;;22.00;99.90;;;;;;5032184;28;20195;-68
2023/07/12 01:36:49;;;;;;;2.37;1.57;;;21.90;99.90;;;;;;5031803;28;20206;-68
2023/07/12 01:39:15;;;;;;;1.43;1.33;;;21.90;99.90;;;;;;5031970;28;20431;-68
2023/07/12 01:41:40;;;;;;;4.07;1.60;;;21.90;99.90;;;;;;5032039;28;20164;-70
2023/07/12 01:44:06;;;;;;;1.70;1.43;;;21.90;99.90;;;;;;5032056;28;20163;-68
2023/07/12 01:46:32;;;;;;;6.43;5.70;;;21.90;99.90;;;;;;5031682;28;20202;-68
2023/07/12 01:48:58;;;;;;;5.20;4.57;;;21.80;99.90;;;;;;5032022;28;20278;-68
2023/07/12 01:51:23;;;;;;;4.40;1.70;;;21.80;99.90;;;;;;5031992;28;20481;-68
2023/07/12 01:53:49;;;;;;;2.13;1.93;;;21.70;99.90;;;;;;5032043;28;20656;-67
2023/07/12 01:56:16;;;;;;;3.00;2.00;;;21.70;99.90;;;;;;5031651;28;20196;-68
2023/07/12 01:58:41;;;;;;;4.47;1.70;;;21.60;99.90;;;;;;5031874;28;20557;-68
2023/07/12 02:01:08;;;;;;;8.10;2.60;;;21.50;99.90;;;;;;5031919;28;20398;-68
2023/07/12 02:03:34;;;;;;;2.80;1.83;;;21.50;99.90;;;;;;5031918;28;20255;-67
2023/07/12 02:06:00;;;;;;;3.00;1.97;;;21.40;99.90;;;;;;5031522;28;20440;-67
2023/07/12 02:08:25;;;;;;;3.20;1.73;;;21.30;99.90;;;;;;5031649;28;20206;-67
2023/07/12 02:10:51;;;;;;;3.53;1.60;;;21.20;99.90;;;;;;5031882;28;20431;-67
2023/07/12 02:13:18;;;;;;;2.97;1.60;;;21.20;99.90;;;;;;5031786;28;20171;-68
2023/07/12 02:15:44;;;;;;;1.77;1.63;;;21.20;99.90;;;;;;5031436;28;20664;-68
2023/07/12 02:18:11;;;;;;;2.00;1.37;;;21.10;99.90;;;;;;5031659;28;20500;-68
2023/07/12 02:20:39;;;;;;;4.13;1.90;;;21.10;99.90;;;;;;5031809;28;20195;-68
2023/07/12 02:23:05;;;;;;;1.77;1.57;;;21.10;99.90;;;;;;5031696;28;20398;-68
2023/07/12 02:25:30;;;;;;;2.00;1.63;;;21.10;99.90;;;;;;5033235;28;20417;-68
2023/07/12 02:27:56;;;;;;;2.17;1.77;;;21.10;99.90;;;;;;5035427;28;20426;-67
2023/07/12 02:30:24;;;;;;;3.20;1.60;;;21.00;99.90;;;;;;5035593;28;20168;-67
2023/07/12 02:32:50;;;;;;;2.17;1.97;;;21.00;99.90;;;;;;5035547;28;20574;-68
2023/07/12 02:35:16;;;;;;;10.43;7.80;;;21.00;99.90;;;;;;5035112;28;20464;-68
2023/07/12 02:37:42;;;;;;;2.67;2.47;;;21.00;99.90;;;;;;5035325;28;20252;-67
2023/07/12 02:40:09;;;;;;;2.30;2.10;;;21.00;99.90;;;;;;5035043;28;20877;-67
2023/07/12 02:42:35;;;;;;;1.50;1.27;;;21.00;99.90;;;;;;5035275;28;20168;-68
2023/07/12 02:45:00;;;;;;;5.37;1.90;;;21.00;99.90;;;;;;5034957;28;20403;-68
2023/07/12 02:47:26;;;;;;;2.33;1.67;;;21.00;99.90;;;;;;5035224;28;20432;-68
2023/07/12 02:49:51;;;;;;;4.53;2.60;;;21.10;99.90;;;;;;5035138;28;20178;-67
2023/07/12 02:52:17;;;;;;;4.53;1.80;;;21.20;99.90;;;;;;5035158;28;20533;-68
2023/07/12 02:54:43;;;;;;;2.40;1.70;;;21.40;99.90;;;;;;5035024;28;20608;-68
2023/07/12 02:57:13;;;;;;;4.43;1.60;;;21.50;99.90;;;;;;5034623;28;20203;-68
2023/07/12 02:59:38;;;;;;;2.30;1.57;;;21.70;99.90;;;;;;5034946;28;20171;-68
2023/07/12 03:02:05;;;;;;;1.63;1.40;;;21.80;99.90;;;;;;5034453;28;20778;-68
2023/07/12 03:04:31;;;;;;;4.27;1.40;;;21.90;99.90;;;;;;5033877;28;20214;-68
2023/07/12 03:06:57;;;;;;;2.50;1.50;;;21.90;99.90;;;;;;5034455;28;20983;-68
2023/07/12 03:09:22;;;;;;;2.00;1.80;;;22.00;99.90;;;;;;5034701;28;20225;-68
2023/07/12 03:11:48;;;;;;;2.00;1.47;;;22.00;99.90;;;;;;5034711;28;20176;-68
2023/07/12 03:14:15;;;;;;;2.60;1.17;;;22.10;99.90;;;;;;5034728;28;20251;-68
2023/07/12 03:16:41;;;;;;;4.23;1.40;;;22.10;99.90;;;;;;5034312;28;20584;-68
2023/07/12 03:19:06;;;;;;;2.43;1.77;;;22.00;99.90;;;;;;5034592;28;20513;-68
2023/07/12 03:21:32;;;;;;;3.37;2.33;;;22.00;99.90;;;;;;5034364;28;20210;-67
2023/07/12 03:23:58;;;;;;;2.00;1.20;;;22.00;99.90;;;;;;5034242;28;20176;-67
2023/07/12 03:26:23;;;;;;;2.30;1.23;;;22.00;99.90;;;;;;5034195;28;20664;-68
2023/07/12 03:28:49;;;;;;;1.40;1.30;;;22.00;99.90;;;;;;5034832;28;20195;-67
2023/07/12 03:31:16;;;;;;;1.60;1.27;;;22.00;99.90;;;;;;5034385;28;20182;-68
2023/07/12 03:33:43;;;;;;;1.43;1.13;;;22.00;99.90;;;;;;5034402;28;20175;-67
2023/07/12 03:36:09;;;;;;;2.03;1.10;;;21.90;99.90;;;;;;5032944;28;20486;-68
2023/07/12 03:38:35;;;;;;;1.73;1.00;;;22.00;99.90;;;;;;5033818;28;20426;-67
2023/07/12 03:41:06;;;;;;;5.70;1.30;;;22.00;99.90;;;;;;5033969;28;20489;-67
2023/07/12 03:43:32;;;;;;;1.60;1.40;;;22.00;99.90;;;;;;5034157;28;20409;-67
2023/07/12 03:45:58;;;;;;;1.80;1.20;;;21.90;99.90;;;;;;5033830;28;20419;-68
2023/07/12 03:48:24;;;;;;;2.03;1.00;;;21.90;99.90;;;;;;5033972;28;20472;-67
2023/07/12 03:50:51;;;;;;;1.53;1.00;;;21.80;99.90;;;;;;5033974;28;20259;-67
2023/07/12 03:53:18;;;;;;;1.73;1.13;;;21.80;99.90;;;;;;5033974;28;20206;-67
2023/07/12 03:55:45;;;;;;;2.03;0.97;;;21.70;99.90;;;;;;5033528;28;20454;-67
2023/07/12 03:58:14;;;;;;;2.27;1.07;;;21.70;99.90;;;;;;5033813;28;20432;-66
2023/07/12 04:00:41;;;;;;;3.67;2.23;;;21.60;99.90;;;;;;5033833;28;20434;-67
2023/07/12 04:03:07;;;;;;;1.40;1.10;;;21.60;99.90;;;;;;5033782;28;20406;-67
2023/07/12 04:05:36;;;;;;;2.07;1.20;;;21.50;99.90;;;;;;5033291;28;20414;-67
2023/07/12 04:08:02;;;;;;;1.00;0.80;;;21.20;99.90;;;;;;5033182;28;20538;-67
2023/07/12 04:10:28;;;;;;;1.00;0.80;;;21.10;99.90;;;;;;5033430;28;20502;-67
2023/07/12 04:12:53;;;;;;;1.60;1.50;;;20.90;99.90;;;;;;5033598;28;20545;-67
2023/07/12 04:15:19;;;;;;;1.23;1.10;;;20.70;99.90;;;;;;5033323;28;20237;-67
2023/07/12 04:17:44;;;;;;;1.10;0.93;;;20.50;99.90;;;;;;5033426;28;20195;-67
2023/07/12 04:20:10;;;;;;;38.60;21.47;;;20.30;99.90;;;;;;5033475;28;20195;-67
2023/07/12 04:22:36;;;;;;;2.80;1.77;;;20.10;99.90;;;;;;5033310;28;20187;-67
2023/07/12 04:25:02;;;;;;;1.40;1.00;;;19.90;99.90;;;;;;5033001;28;20518;-66
2023/07/12 04:27:28;;;;;;;3.70;1.20;;;19.70;99.90;;;;;;5033259;28;20260;-67
2023/07/12 04:29:53;;;;;;;1.60;1.00;;;19.50;99.90;;;;;;5033299;28;20489;-66
2023/07/12 04:32:19;;;;;;;1.10;0.83;;;19.50;99.90;;;;;;5033260;28;20235;-68
2023/07/12 04:34:46;;;;;;;1.60;1.07;;;19.30;99.90;;;;;;5033271;28;20246;-68
2023/07/12 04:37:12;;;;;;;1.00;0.80;;;19.30;99.90;;;;;;5032585;28;20278;-68
2023/07/12 04:39:37;;;;;;;2.33;1.23;;;19.20;99.90;;;;;;5033320;28;20430;-66
2023/07/12 04:42:03;;;;;;;1.80;1.40;;;19.20;99.90;;;;;;5033055;28;20171;-67
2023/07/12 04:44:29;;;;;;;1.53;1.00;;;19.20;99.90;;;;;;5033036;28;20213;-67
2023/07/12 04:46:55;;;;;;;3.50;1.40;;;19.20;99.90;;;;;;5032627;28;20576;-66
2023/07/12 04:49:20;;;;;;;1.50;1.07;;;19.10;99.90;;;;;;5032517;28;20570;-67
2023/07/12 04:51:46;;;;;;;4.50;2.60;;;19.30;99.90;;;;;;5032819;28;20414;-67
2023/07/12 04:54:11;;;;;;;2.50;2.10;;;19.40;99.90;;;;;;5032722;28;20168;-67
2023/07/12 04:56:37;;;;;;;1.80;0.93;;;19.40;99.90;;;;;;5032439;28;20195;-67
2023/07/12 04:59:02;;;;;;;1.37;1.03;;;19.40;99.90;;;;;;5031241;28;20656;-67
2023/07/12 05:01:29;;;;;;;2.80;1.43;;;19.30;99.90;;;;;;5032619;28;20163;-66
2023/07/12 05:03:54;;;;;;;3.73;1.90;;;19.40;99.90;;;;;;5032381;28;20160;-67
2023/07/12 05:06:20;;;;;;;2.63;1.10;;;19.40;99.90;;;;;;5031837;28;20413;-67
2023/07/12 05:08:46;;;;;;;1.73;1.00;;;19.40;99.90;;;;;;5032524;28;20202;-67
2023/07/12 05:11:11;;;;;;;1.10;0.83;;;19.50;99.90;;;;;;5032537;28;20171;-67
2023/07/12 05:13:37;;;;;;;1.20;1.00;;;19.60;99.90;;;;;;5032444;28;20178;-67
2023/07/12 05:16:02;;;;;;;2.17;1.00;;;19.70;99.90;;;;;;5032158;28;20217;-67
2023/07/12 05:18:28;;;;;;;2.00;1.10;;;19.60;99.90;;;;;;5032372;28;20264;-67
2023/07/12 05:20:53;;;;;;;1.50;1.40;;;19.80;99.90;;;;;;5032213;28;20170;-67
2023/07/12 05:23:20;;;;;;;1.07;0.80;;;20.00;99.90;;;;;;5032398;28;20166;-67
2023/07/12 05:25:50;;;;;;;2.77;1.33;;;20.00;99.90;;;;;;5031906;28;20160;-67
2023/07/12 05:28:16;;;;;;;1.20;1.00;;;20.10;99.90;;;;;;5032475;28;20496;-67
2023/07/12 05:30:42;;;;;;;1.20;1.10;;;20.20;99.90;;;;;;5032208;28;20415;-68
2023/07/12 05:33:07;;;;;;;2.57;1.50;;;20.20;99.90;;;;;;5032250;28;20457;-66
2023/07/12 05:35:33;;;;;;;2.23;1.10;;;20.30;99.90;;;;;;5031838;28;20191;-67
2023/07/12 05:37:58;;;;;;;1.57;0.93;;;20.40;99.90;;;;;;5032093;28;20183;-67
2023/07/12 05:40:24;;;;;;;3.10;1.20;;;20.50;99.90;;;;;;5031989;28;20159;-67
2023/07/12 05:42:51;;;;;;;5.60;0.97;;;20.50;99.90;;;;;;5032110;28;20198;-67
2023/07/12 05:45:16;;;;;;;1.50;1.33;;;20.70;99.90;;;;;;5031860;28;20530;-67
2023/07/12 05:47:47;;;;;;;1.67;1.10;;;20.90;99.90;;;;;;5031972;28;20426;-66
2023/07/12 05:50:14;;;;;;;1.80;1.30;;;21.00;99.90;;;;;;5030706;28;20506;-67
2023/07/12 05:52:39;;;;;;;1.60;1.23;;;20.90;99.90;;;;;;5032055;28;20496;-67
2023/07/12 05:55:07;;;;;;;1.80;1.57;;;20.90;99.90;;;;;;5031603;28;20425;-67
2023/07/12 05:57:33;;;;;;;1.97;0.90;;;20.90;99.90;;;;;;5031845;28;20264;-67
2023/07/12 06:00:00;;;;;;;1.50;1.07;;;20.90;99.90;;;;;;5032890;28;20406;-67
2023/07/12 06:02:26;;;;;;;1.23;0.93;;;20.90;99.90;;;;;;5036050;28;20163;-67
2023/07/12 06:04:51;;;;;;;1.50;1.13;;;20.90;99.90;;;;;;5035702;28;20406;-67
2023/07/12 06:07:17;;;;;;;1.93;1.40;;;20.90;99.90;;;;;;5035582;28;20207;-67
2023/07/12 06:09:42;;;;;;;2.27;1.07;;;21.00;99.90;;;;;;5035871;28;20175;-68
2023/07/12 06:12:08;;;;;;;1.90;1.00;;;21.10;99.90;;;;;;5036019;28;20245;-67
2023/07/12 06:14:34;;;;;;;1.43;0.97;;;21.20;99.90;;;;;;5035794;28;20558;-67
2023/07/12 06:17:00;;;;;;;1.10;1.00;;;21.50;99.90;;;;;;5035328;28;20535;-66
2023/07/12 06:19:25;;;;;;;1.50;1.27;;;21.70;99.90;;;;;;5035627;28;20403;-67
2023/07/12 06:21:52;;;;;;;2.27;1.30;;;22.10;99.90;;;;;;5035662;28;20167;-67
2023/07/12 06:24:18;;;;;;;3.10;1.57;;;23.00;99.90;;;;;;5035653;28;20267;-66
2023/07/12 06:26:43;;;;;;;1.40;0.93;;;24.00;99.90;;;;;;5035280;28;20493;-70
2023/07/12 06:29:09;;;;;;;1.53;1.00;;;24.60;99.90;;;;;;5035490;28;20188;-67
2023/07/12 06:31:34;;;;;;;1.60;1.50;;;25.80;99.90;;;;;;5035479;28;20164;-67
2023/07/12 06:34:03;;;;;;;1.83;1.37;;;26.60;99.90;;;;;;5035363;28;20167;-67
2023/07/12 06:36:29;;;;;;;2.00;1.60;;;27.60;99.90;;;;;;5035080;28;20187;-67
2023/07/12 06:38:55;;;;;;;2.07;1.23;;;28.10;99.90;;;;;;5035275;28;20433;-67
2023/07/12 06:41:21;;;;;;;1.30;1.00;;;28.70;99.90;;;;;;5035333;28;20460;-67
2023/07/12 06:43:46;;;;;;;1.90;1.40;;;28.70;97.40;;;;;;5035099;28;20202;-68
2023/07/12 06:46:12;;;;;;;2.70;1.40;;;28.40;96.60;;;;;;5034976;28;20171;-68
2023/07/12 06:48:37;;;;;;;1.77;1.10;;;28.10;96.60;;;;;;5035030;28;20183;-67
2023/07/12 06:51:04;;;;;;;1.93;1.00;;;28.00;98.10;;;;;;5035181;28;20180;-67
2023/07/12 06:53:30;;;;;;;1.43;0.90;;;27.80;97.30;;;;;;5035116;28;20171;-67
2023/07/12 06:55:55;;;;;;;1.57;1.10;;;28.00;99.20;;;;;;5034699;28;20449;-67
2023/07/12 06:58:21;;;;;;;2.07;1.20;;;28.00;97.80;;;;;;5034929;28;20187;-68
2023/07/12 07:00:47;;;;;;;1.73;1.10;;;27.80;96.50;;;;;;5034973;28;20195;-67
2023/07/12 07:03:14;;;;;;;1.53;1.10;;;27.60;96.80;;;;;;5040694;28;20850;-67
2023/07/12 07:05:41;;;;;;;2.33;1.20;;;27.40;96.30;;;;;;5054449;28;20404;-67
2023/07/12 07:08:07;;;;;;;1.67;1.37;;;27.30;97.00;;;;;;5054512;28;20445;-67
2023/07/12 07:10:33;;;;;;;1.50;1.40;;;27.20;96.70;;;;;;5054373;28;20922;-68
2023/07/12 07:13:00;;;;;;;1.70;1.43;;;27.70;96.60;;;;;;5054730;28;20433;-67
2023/07/12 07:15:25;;;;;;;1.40;1.07;;;27.70;94.60;;;;;;5054355;28;20453;-68
2023/07/12 07:17:51;;;;;;;1.10;1.00;;;27.50;93.60;;;;;;5054462;28;20427;-68
2023/07/12 07:20:16;;;;;;;1.47;1.17;;;27.00;94.20;;;;;;5054543;28;20159;-69
2023/07/12 07:22:42;;;;;;;3.00;1.27;;;26.60;93.80;;;;;;5054460;28;20170;-68
2023/07/12 07:25:08;;;;;;;1.30;0.97;;;26.20;95.70;;;;;;5054211;28;20159;-68
2023/07/12 07:27:34;;;;;;;1.80;1.33;;;25.90;97.30;;;;;;5054503;28;20425;-68
2023/07/12 07:29:59;;;;;;;1.80;1.27;;;25.90;99.10;;;;;;5054344;28;20174;-69
2023/07/12 07:32:25;;;;;;;2.27;1.40;;;25.90;99.10;;;;;;5054282;28;20301;-69
2023/07/12 07:34:50;;;;;;;2.57;1.43;;;25.80;98.70;;;;;;5054268;28;20301;-69
2023/07/12 07:37:16;;;;;;;1.20;1.00;;;25.60;98.70;;;;;;5053951;28;20198;-69
2023/07/12 07:39:41;;;;;;;1.33;1.10;;;25.60;99.90;;;;;;5054207;28;20177;-68
2023/07/12 07:42:07;;;;;;;2.27;1.50;;;26.10;98.90;;;;;;5054077;28;20182;-69
2023/07/12 07:44:34;;;;;;;1.73;1.07;;;26.50;97.10;;;;;;5054124;28;20167;-70
2023/07/12 07:46:59;;;;;;;3.07;1.10;;;27.80;96.50;;;;;;5053585;28;20496;-69
2023/07/12 07:49:25;;;;;;;1.90;1.10;;;29.70;90.10;;;;;;5054060;28;20412;-70
2023/07/12 07:51:51;;;;;;;2.10;1.20;;;31.70;74.60;;;;;;5053836;28;20708;-69
2023/07/12 07:54:16;;;;;;;4.70;1.40;;;33.40;63.30;;;;;;5053752;28;20401;-69
2023/07/12 07:56:42;;;;;;;2.40;1.20;;;34.70;55.30;;;;;;5053367;28;20195;-69
2023/07/12 07:59:08;;;;;;;5.37;1.70;;;35.50;50.40;;;;;;5053719;28;20179;-70
2023/07/12 08:01:33;;;;;;;2.03;1.30;;;36.20;46.60;;;;;;5053631;28;20163;-70
2023/07/12 08:03:59;;;;;;;1.73;1.10;;;37.10;44.00;;;;;;5053719;28;20170;-69
2023/07/12 08:06:24;;;;;;;1.73;1.10;;;38.00;41.30;;;;;;5052049;28;20167;-67
2023/07/12 08:08:51;;;;;;;1.60;1.33;;;38.80;39.50;;;;;;5053605;28;20190;-67
2023/07/12 08:11:17;;;;;;;3.97;2.40;;;39.20;38.00;;;;;;5052307;28;20239;-67
2023/07/12 08:13:42;;;;;;;3.57;1.50;;;39.60;36.70;;;;;;5053623;28;20455;-67
2023/07/12 08:16:08;;;;;;;1.70;1.40;;;40.10;36.00;;;;;;5053074;28;20195;-68
2023/07/12 08:18:34;;;;;;;1.43;1.33;;;40.20;34.00;;;;;;5053385;28;20206;-67
2023/07/12 08:21:00;;;;;;;1.83;1.33;;;40.10;34.40;;;;;;5053314;28;20159;-66
2023/07/12 08:23:27;;;;;;;1.83;1.20;;;40.50;33.70;;;;;;5052594;28;20374;-67
2023/07/12 08:25:53;;;;;;;2.80;1.80;;;40.20;33.80;;;;;;5052997;28;20178;-67
2023/07/12 08:28:19;;;;;;;4.13;3.43;;;40.60;33.90;;;;;;5053193;28;20396;-67
2023/07/12 08:30:45;;;;;;;1.90;1.53;;;41.60;33.50;;;;;;5053175;28;20397;-67
2023/07/12 08:33:10;;;;;;;1.37;1.27;;;42.50;32.20;;;;;;5053169;28;20178;-67
2023/07/12 08:35:36;;;;;;;4.50;1.30;;;42.10;29.80;;;;;;5052813;28;20206;-68
2023/07/12 08:38:02;;;;;;;1.57;1.10;;;41.50;28.80;;;;;;5052975;28;20656;-67
2023/07/12 08:40:28;;;;;;;1.20;1.10;;;41.00;29.20;;;;;;5053043;28;20167;-67
2023/07/12 08:42:54;;;;;;;1.70;1.50;;;41.80;30.20;;;;;;5052971;28;20174;-67
2023/07/12 08:45:28;;;;;;;2.53;1.30;;;42.50;29.30;;;;;;5052536;28;20194;-67
2023/07/12 08:48:00;;;;;;;2.30;1.43;;;42.90;29.30;;;;;;5052853;28;20185;-67
2023/07/12 08:50:39;;;;;;;2.17;1.73;;;42.10;28.50;;;;;;5052783;28;20390;-67
2023/07/12 08:53:08;;;;;;;1.53;1.37;;;42.70;29.10;;;;;;5052766;28;20406;-68
2023/07/12 08:55:36;;;;;;;2.90;1.50;;;43.90;28.40;;;;;;5052318;28;20457;-66
2023/07/12 08:58:14;;;;;;;1.80;1.70;;;45.10;27.20;;;;;;5052649;28;20471;-67
2023/07/12 09:00:41;;;;;;;1.77;1.53;;;45.60;26.20;;;;;;5052181;28;21093;-67
2023/07/12 09:03:06;;;;;;;2.40;1.63;;;46.20;25.60;;;;;;5052586;28;20744;-67
2023/07/12 09:05:32;;;;;;;2.63;2.43;;;46.20;25.50;;;;;;5052295;28;20467;-67
2023/07/12 09:08:17;;;;;;;2.37;1.90;;;46.40;25.40;;;;;;5052226;28;20206;-67
2023/07/12 09:10:46;;;;;;;2.03;1.60;;;46.50;24.60;;;;;;5052588;28;20376;-68
2023/07/12 09:13:14;;;;;;;3.87;1.70;;;47.10;24.70;;;;;;5052408;28;20430;-67
2023/07/12 09:15:49;;;;;;;4.37;1.67;;;46.90;24.20;;;;;;5052060;28;20495;-67
2023/07/12 09:18:36;;;;;;;1.70;1.50;;;47.10;23.90;;;;;;5052327;28;20417;-67
2023/07/12 09:21:12;;;;;;;1.60;1.50;;;46.50;24.20;;;;;;5052359;28;20933;-67
2023/07/12 09:23:40;;;;;;;3.43;1.27;;;45.10;24.00;;;;;;5052326;28;20401;-69
2023/07/12 09:26:12;;;;;;;1.53;1.43;;;43.90;24.50;;;;;;5052004;28;20376;-67
2023/07/12 09:28:39;;;;;;;2.03;1.37;;;44.40;25.30;;;;;;5052141;28;20494;-68
2023/07/12 09:31:13;;;;;;;1.27;1.17;;;44.90;25.20;;;;;;5052155;28;20915;-68
2023/07/12 09:33:40;;;;;;;1.50;1.37;;;45.50;24.40;;;;;;5052145;28;20467;-67
2023/07/12 09:36:06;;;;;;;2.07;1.30;;;46.30;24.80;;;;;;5051727;28;20447;-67
2023/07/12 09:38:36;;;;;;;1.73;1.33;;;46.90;24.30;;;;;;5052012;28;20963;-67
2023/07/12 09:41:10;;;;;;;2.23;1.60;;;47.20;24.30;;;;;;5052040;28;20163;-67
2023/07/12 09:43:37;;;;;;;1.80;1.37;;;47.80;23.80;;;;;;5051982;28;20496;-67
2023/07/12 09:46:17;;;;;;;1.70;1.40;;;47.60;23.10;;;;;;5051754;28;20372;-67
2023/07/12 09:48:50;;;;;;;2.07;1.53;;;47.20;23.20;;;;;;5051952;28;20961;-67
2023/07/12 09:51:31;;;;;;;2.40;1.67;;;45.50;23.00;;;;;;5051970;28;20368;-67
2023/07/12 09:54:06;;;;;;;4.10;1.90;;;45.20;23.70;;;;;;5051909;28;20402;-67
2023/07/12 09:56:34;;;;;;;3.63;1.63;;;45.00;23.40;;;;;;5051544;28;20431;-67
2023/07/12 09:59:25;;;;;;;2.00;1.40;;;44.80;23.30;;;;;;5051741;28;20388;-67
2023/07/12 10:01:56;;;;;;;2.13;1.43;;;44.90;24.00;;;;;;5051935;28;20394;-67
2023/07/12 10:04:35;;;;;;;1.53;1.27;;;45.80;24.10;;;;;;5051750;28;20448;-67
2023/07/12 10:07:07;;;;;;;1.30;1.20;;;46.50;23.60;;;;;;5051380;28;20899;-67
2023/07/12 10:09:36;;;;;;;1.60;1.50;;;46.10;23.30;;;;;;5051964;28;20372;-67
2023/07/12 10:12:31;;;;;;;2.10;1.40;;;44.70;23.50;;;;;;5051771;28;20410;-66
2023/07/12 10:14:57;;;;;;;2.53;1.77;;;43.70;24.50;;;;;;5047329;28;20475;-66
2023/07/12 10:17:36;;;;;;;3.10;1.70;;;43.60;24.60;;;;;;5051515;28;20437;-66
2023/07/12 10:20:02;;;;;;;2.80;1.83;;;44.30;24.20;;;;;;5051638;28;20375;-67
2023/07/12 10:22:38;;;;;;;1.63;1.53;;;45.30;24.40;;;;;;5051600;28;20433;-66
2023/07/12 10:25:25;;;;;;;1.40;1.27;;;46.70;23.80;;;;;;5051389;28;20992;-67
2023/07/12 10:27:59;;;;;;;1.50;1.40;;;48.10;23.10;;;;;;5051541;28;20417;-67
2023/07/12 10:30:26;;;;;;;1.40;1.30;;;48.30;22.50;;;;;;5051574;28;20425;-66
2023/07/12 10:32:59;;;;;;;1.83;1.30;;;48.60;22.20;;;;;;5051562;28;20462;-66
2023/07/12 10:35:33;;;;;;;1.50;1.40;;;45.80;21.80;;;;;;5051189;28;20406;-66
2023/07/12 10:38:17;;;;;;;2.93;1.70;;;44.10;23.70;;;;;;5051475;28;20819;-66
2023/07/12 10:40:54;;;;;;;1.40;1.30;;;42.70;24.50;;;;;;5051521;28;20372;-66
2023/07/12 10:43:32;;;;;;;2.77;1.50;;;41.50;25.50;;;;;;5051447;28;20407;-66
2023/07/12 10:46:07;;;;;;;2.20;1.63;;;41.80;25.90;;;;;;5052074;28;20375;-66
2023/07/12 10:48:33;;;;;;;2.10;1.63;;;41.00;25.50;;;;;;5055089;28;20411;-66
2023/07/12 10:51:25;;;;;;;1.60;1.27;;;40.20;26.50;;;;;;5055140;28;20402;-66
2023/07/12 10:53:54;;;;;;;4.20;3.60;;;40.90;26.50;;;;;;5055117;28;20372;-67
2023/07/12 10:56:27;;;;;;;1.67;1.40;;;42.80;26.30;;;;;;5054483;28;20946;-67
2023/07/12 10:59:01;;;;;;;3.20;1.60;;;44.20;24.10;;;;;;5054900;28;20421;-71
2023/07/12 11:01:36;;;;;;;2.90;1.50;;;44.40;22.90;;;;;;5054711;28;20380;-73
2023/07/12 11:04:12;;;;;;;2.27;1.60;;;43.60;22.20;;;;;;5055049;28;20408;-71
2023/07/12 11:07:11;;;;;;;2.30;1.60;;;43.60;23.30;;;;;;5054392;28;20508;-72
2023/07/12 11:09:43;;;;;;;2.03;1.60;;;43.30;22.50;;;;;;5054797;28;20380;-72
2023/07/12 11:12:10;;;;;;;1.40;1.30;;;42.90;23.30;;;;;;5055017;28;20384;-72
2023/07/12 11:14:39;;;;;;;3.87;1.60;;;43.80;24.60;;;;;;5054773;28;20749;-72
2023/07/12 11:17:27;;;;;;;4.03;1.70;;;44.70;23.70;;;;;;5054330;28;20449;-72
2023/07/12 11:20:08;;;;;;;7.33;1.50;;;45.30;22.30;;;;;;5054695;28;20380;-71
2023/07/12 11:22:56;;;;;;;2.47;1.43;;;45.90;21.00;;;;;;5053269;28;20380;-71
2023/07/12 11:25:37;;;;;;;2.70;1.60;;;46.10;22.00;;;;;;5054191;28;20799;-71
2023/07/12 11:28:24;;;;;;;2.97;1.50;;;46.30;22.10;;;;;;5054308;28;20930;-71
2023/07/12 11:31:14;;;;;;;2.17;1.47;;;45.00;22.50;;;;;;5054157;28;20388;-72
2023/07/12 11:33:50;;;;;;;1.93;1.33;;;44.40;23.10;;;;;;5054363;28;20360;-73
2023/07/12 11:36:25;;;;;;;1.73;1.63;;;43.80;23.20;;;;;;5054086;28;20454;-71
2023/07/12 11:38:53;;;;;;;2.70;1.33;;;44.80;23.30;;;;;;5054162;28;21140;-72
2023/07/12 11:41:24;;;;;;;2.70;1.80;;;46.50;23.20;;;;;;5054130;28;20907;-72
2023/07/12 11:44:04;;;;;;;1.70;1.60;;;48.20;22.40;;;;;;5054107;28;20398;-73
2023/07/12 11:46:35;;;;;;;2.87;2.10;;;49.10;20.30;;;;;;5053748;28;20409;-73
2023/07/12 11:49:13;;;;;;;2.30;1.50;;;49.20;20.30;;;;;;5053959;28;20417;-72
2023/07/12 11:51:41;;;;;;;1.63;1.43;;;49.70;20.70;;;;;;5054076;28;20427;-73
2023/07/12 11:54:25;;;;;;;3.77;2.10;;;49.60;20.10;;;;;;5053922;28;20401;-72
2023/07/12 11:56:52;;;;;;;1.87;1.63;;;47.10;19.80;;;;;;5053056;28;20423;-71
2023/07/12 11:59:21;;;;;;;4.10;1.70;;;47.20;21.00;;;;;;5053138;28;20789;-72
2023/07/12 12:01:47;;;;;;;2.23;1.57;;;48.10;21.50;;;;;;5053827;28;20477;-72
2023/07/12 12:04:24;;;;;;;2.20;2.00;;;48.90;20.70;;;;;;5053756;28;20452;-72
2023/07/12 12:06:57;;;;;;;2.07;1.73;;;50.00;20.70;;;;;;5053342;28;20424;-72
2023/07/12 12:09:28;;;;;;;1.73;1.30;;;50.00;20.40;;;;;;5052252;28;20413;-72
2023/07/12 12:11:54;;;;;;;1.50;1.40;;;48.40;20.40;;;;;;5053665;28;20906;-73
2023/07/12 12:14:26;;;;;;;1.67;1.30;;;46.30;21.30;;;;;;5053542;28;20415;-73
2023/07/12 12:16:53;;;;;;;2.03;1.73;;;44.70;22.10;;;;;;5053252;28;20423;-72
2023/07/12 12:19:21;;;;;;;2.13;1.60;;;42.80;22.50;;;;;;5053797;28;20755;-71
2023/07/12 12:21:52;;;;;;;1.63;1.53;;;41.10;23.60;;;;;;5053348;28;20372;-72
2023/07/12 12:24:20;;;;;;;2.37;1.90;;;39.10;24.40;;;;;;5053289;28;20894;-75
2023/07/12 12:26:48;;;;;;;1.60;1.50;;;37.20;25.30;;;;;;5052970;28;20383;-74
2023/07/12 12:29:21;;;;;;;1.60;1.47;;;36.50;27.00;;;;;;5053323;28;20400;-71
2023/07/12 12:31:53;;;;;;;1.27;1.10;;;36.00;27.30;;;;;;5053326;28;20779;-71
2023/07/12 12:34:18;;;;;;;1.20;1.07;;;37.30;28.50;;;;;;5053186;28;20760;-74
2023/07/12 12:37:09;;;;;;;2.53;1.60;;;39.90;27.80;;;;;;5053068;28;20459;-73
2023/07/12 12:39:35;;;;;;;1.67;1.30;;;41.50;25.00;;;;;;5051756;28;20174;-73
2023/07/12 12:42:18;;;;;;;3.60;1.60;;;40.60;24.10;;;;;;5053043;28;20765;-73
2023/07/12 12:44:44;;;;;;;1.60;1.10;;;40.50;25.70;;;;;;5052997;28;20390;-73
2023/07/12 12:47:19;;;;;;;2.03;1.23;;;41.00;25.60;;;;;;5052635;28;20462;-73
2023/07/12 12:49:45;;;;;;;3.27;1.57;;;41.10;25.40;;;;;;5051643;28;20796;-73
2023/07/12 12:52:16;;;;;;;1.73;1.40;;;40.70;24.90;;;;;;5052823;28;20377;-73
2023/07/12 12:54:42;;;;;;;1.50;1.10;;;40.50;25.10;;;;;;5052700;28;20918;-72